createdAt,value
2018-04-10T00:04:05.900Z,100144.57
2018-04-10T00:08:56.964Z,100147.47
2018-04-10T00:13:47.992Z,100143.88
2018-04-10T00:18:39.036Z,100133.91
2018-04-10T00:23:30.072Z,100132.02
2018-04-10T00:28:21.955Z,100134.54
2018-04-10T00:33:12.963Z,100129.39
2018-04-10T00:38:04.021Z,100131.72
2018-04-10T00:42:55.045Z,100118.59
2018-04-10T00:47:46.351Z,100123.66
2018-04-10T00:52:37.394Z,100114.89
2018-04-10T00:57:28.420Z,100114.83
2018-04-10T01:02:19.429Z,100107.41
2018-04-10T01:07:10.451Z,100113.86
2018-04-10T01:12:01.499Z,100106.72
2018-04-10T01:16:52.558Z,100107.83
2018-04-10T01:21:44.313Z,100108.56
2018-04-10T01:26:35.391Z,100100.16
2018-04-10T01:31:26.414Z,100103.19
2018-04-10T01:36:17.463Z,100104.97
2018-04-10T01:41:09.219Z,100100.35
2018-04-10T01:46:01.001Z,100100.63
2018-04-10T01:50:52.121Z,100094.83
2018-04-10T01:55:43.138Z,100094.83
2018-04-10T02:00:34.166Z,100095.65
2018-04-10T02:05:25.195Z,100094.20
2018-04-10T02:10:16.266Z,100095.88
2018-04-10T02:15:08.076Z,100100.23
2018-04-10T02:19:59.082Z,100106.91
2018-04-10T02:24:50.109Z,100111.66
2018-04-10T02:29:41.124Z,100099.36
2018-04-10T02:34:32.170Z,100103.97
2018-04-10T02:39:23.196Z,100094.34
2018-04-10T02:44:14.225Z,100098.69
2018-04-10T02:49:05.989Z,100097.48
2018-04-10T02:53:57.088Z,100091.52
2018-04-10T02:58:48.179Z,100086.95
2018-04-10T03:03:39.197Z,100073.25
2018-04-10T03:08:30.229Z,100074.87
2018-04-10T03:13:21.260Z,100078.13
2018-04-10T03:18:12.507Z,100082.48
2018-04-10T03:23:03.506Z,100076.14
2018-04-10T03:27:54.587Z,100082.77
2018-04-10T03:32:46.414Z,100081.70
2018-04-10T03:37:37.475Z,100078.88
2018-04-10T03:42:28.516Z,100076.83
2018-04-10T03:47:19.563Z,100081.19
2018-04-10T03:52:10.600Z,100081.86
2018-04-10T03:57:01.710Z,100080.88
2018-04-10T04:01:52.772Z,100082.00
2018-04-10T04:06:44.610Z,100079.82
2018-04-10T04:11:35.646Z,100068.56
2018-04-10T04:16:46.107Z,100069.39
2018-04-10T04:21:56.192Z,100081.70
2018-04-10T04:26:47.947Z,100071.95
2018-04-10T04:31:38.991Z,100068.30
2018-04-10T04:36:30.016Z,100057.19
2018-04-10T04:41:21.104Z,100064.91
2018-04-10T04:46:12.974Z,100068.03
2018-04-10T04:51:04.236Z,100072.38
2018-04-10T04:55:55.283Z,100086.73
2018-04-10T05:00:46.308Z,100098.48
2018-04-10T05:05:37.421Z,100098.23
2018-04-10T05:10:28.488Z,100092.94
2018-04-10T05:15:19.554Z,100095.92
2018-04-10T05:20:10.627Z,100098.36
2018-04-10T05:25:02.471Z,100102.71
2018-04-10T05:29:54.315Z,100099.71
2018-04-10T05:34:45.313Z,100087.23
2018-04-10T05:39:36.415Z,100088.30
2018-04-10T05:44:27.466Z,100092.20
2018-04-10T05:49:19.327Z,100097.36
2018-04-10T05:54:11.091Z,100100.85
2018-04-10T05:59:02.132Z,100109.26
2018-04-10T06:03:53.177Z,100103.25
2018-04-10T06:08:44.296Z,100095.61
2018-04-10T06:13:35.350Z,100088.09
2018-04-10T06:18:27.372Z,100100.26
2018-04-10T06:23:18.415Z,100094.45
2018-04-10T06:28:09.447Z,100101.84
2018-04-10T06:33:01.204Z,100100.23
2018-04-10T06:37:53.001Z,100104.17
2018-04-10T06:42:44.039Z,100100.86
2018-04-10T06:47:35.195Z,100108.23
2018-04-10T06:52:26.219Z,100109.55
2018-04-10T06:57:17.377Z,100099.72
2018-04-10T07:02:08.415Z,100100.12
2018-04-10T07:06:59.455Z,100108.99
2018-04-10T07:11:50.575Z,100107.11
2018-04-10T07:16:41.639Z,100104.19
2018-04-10T07:21:32.784Z,100101.17
2018-04-10T07:26:23.852Z,100108.22
2018-04-10T07:31:15.000Z,100108.24
2018-04-10T07:36:06.783Z,100113.70
2018-04-10T07:40:57.876Z,100108.64
2018-04-10T07:45:48.951Z,100109.20
2018-04-10T07:50:39.987Z,100112.66
2018-04-10T07:55:31.008Z,100115.86
2018-04-10T08:00:22.043Z,100115.18
2018-04-10T08:05:20.158Z,100123.47
2018-04-10T08:10:11.967Z,100123.92
2018-04-10T08:15:04.480Z,100126.42
2018-04-10T08:19:55.546Z,100129.13
2018-04-10T08:24:46.571Z,100127.36
2018-04-10T08:29:37.755Z,100125.64
2018-04-10T08:34:29.047Z,100134.10
2018-04-10T08:39:20.935Z,100139.84
2018-04-10T08:44:12.016Z,100135.59
2018-04-10T08:49:03.787Z,100127.38
2018-04-10T08:53:54.875Z,100123.47
2018-04-10T08:58:46.648Z,100121.53
2018-04-10T09:03:37.783Z,100126.21
2018-04-10T09:08:28.796Z,100130.69
2018-04-10T09:13:19.920Z,100133.17
2018-04-10T09:18:10.951Z,100137.13
2018-04-10T09:23:02.016Z,100135.70
2018-04-10T09:27:53.822Z,100143.36
2018-04-10T09:32:45.739Z,100136.33
2018-04-10T09:37:36.892Z,100138.38
2018-04-10T09:42:28.011Z,100134.00
2018-04-10T09:47:19.108Z,100133.59
2018-04-10T09:52:10.887Z,100135.44
2018-04-10T09:57:01.908Z,100135.66
2018-04-10T10:01:53.093Z,100135.37
2018-04-10T10:06:44.876Z,100144.70
2018-04-10T10:16:44.052Z,100146.70
2018-04-10T10:21:35.127Z,100154.59
2018-04-10T10:26:26.159Z,100154.59
2018-04-10T10:31:17.223Z,100156.08
2018-04-10T10:36:08.412Z,100173.58
2018-04-10T10:40:59.486Z,100161.75
2018-04-10T10:45:51.290Z,100164.36
2018-04-10T10:50:42.427Z,100166.14
2018-04-10T10:55:33.495Z,100166.36
2018-04-10T11:00:24.590Z,100157.55
2018-04-10T11:05:15.627Z,100164.42
2018-04-10T11:10:07.443Z,100165.92
2018-04-10T11:14:58.467Z,100132.00
2018-04-10T11:19:49.563Z,100156.94
2018-04-10T11:24:40.588Z,100156.24
2018-04-10T11:29:31.685Z,100163.90
2018-04-10T11:34:22.792Z,100157.91
2018-04-10T11:39:14.558Z,100163.40
2018-04-10T11:44:05.600Z,100155.03
2018-04-10T11:48:56.601Z,100157.75
2018-04-10T11:53:47.768Z,100160.13
2018-04-10T11:58:38.796Z,100150.22
2018-04-10T12:03:29.925Z,100150.23
2018-04-10T12:08:20.995Z,100128.57
2018-04-10T12:13:12.049Z,100140.01
2018-04-10T12:18:03.187Z,100132.45
2018-04-10T12:22:54.976Z,100128.61
2018-04-10T12:27:46.743Z,100133.93
2018-04-10T12:32:37.903Z,100134.61
2018-04-10T12:37:29.094Z,100127.60
2018-04-10T12:42:20.167Z,100130.48
2018-04-10T12:47:11.283Z,100120.70
2018-04-10T12:52:02.359Z,100117.58
2018-04-10T12:56:53.382Z,100116.63
2018-04-10T13:01:44.389Z,100111.31
2018-04-10T13:06:35.423Z,100106.73
2018-04-10T13:11:26.440Z,100115.28
2018-04-10T13:16:17.515Z,100109.85
2018-04-10T13:21:08.551Z,100114.63
2018-04-10T13:25:59.560Z,100105.83
2018-04-10T13:30:50.591Z,100104.56
2018-04-10T13:35:41.619Z,100104.64
2018-04-10T13:40:32.704Z,100109.08
2018-04-10T13:45:26.492Z,100105.70
2018-04-10T13:50:17.819Z,100108.06
2018-04-10T13:55:08.917Z,100094.87
2018-04-10T14:00:00.667Z,100098.19
2018-04-10T14:04:52.620Z,100095.85
2018-04-10T14:09:43.648Z,100086.09
2018-04-10T14:14:34.710Z,100083.59
2018-04-10T14:19:25.748Z,100078.80
2018-04-10T14:24:16.788Z,100075.88
2018-04-10T14:29:08.541Z,100074.58
2018-04-10T14:34:00.359Z,100073.24
2018-04-10T14:38:52.141Z,100069.95
2018-04-10T14:43:43.254Z,100054.44
2018-04-10T14:48:35.060Z,100055.83
2018-04-10T14:53:26.247Z,100058.36
2018-04-10T14:58:17.279Z,100053.91
2018-04-10T15:03:08.433Z,100049.92
2018-04-10T15:08:00.204Z,100042.62
2018-04-10T15:12:52.047Z,100049.88
2018-04-10T15:17:43.825Z,100042.73
2018-04-10T15:22:34.867Z,100046.03
2018-04-10T15:27:25.931Z,100044.93
2018-04-10T15:32:17.900Z,100057.17
2018-04-10T15:37:09.237Z,100050.02
2018-04-10T15:42:00.267Z,100050.20
2018-04-10T15:46:51.287Z,100045.69
2018-04-10T15:51:42.320Z,100039.04
2018-04-10T15:56:33.535Z,100045.09
2018-04-10T16:01:24.572Z,100054.97
2018-04-10T16:06:15.605Z,100050.37
2018-04-10T16:11:06.639Z,100051.18
2018-04-10T16:15:57.711Z,100058.03
2018-04-10T16:20:49.608Z,100065.60
2018-04-10T16:25:40.763Z,100064.25
2018-04-10T16:30:31.780Z,100070.55
2018-04-10T16:35:22.839Z,100071.47
2018-04-10T16:40:14.058Z,100070.66
2018-04-10T16:45:05.256Z,100069.73
2018-04-10T16:49:56.418Z,100085.96
2018-04-10T16:54:47.607Z,100088.51
2018-04-10T16:59:38.721Z,100092.77
2018-04-10T17:04:29.863Z,100090.80
2018-04-10T17:09:20.915Z,100091.11
2018-04-10T17:14:12.052Z,100103.97
2018-04-10T17:19:03.231Z,100103.74
2018-04-10T17:23:54.355Z,100114.58
2018-04-10T17:28:50.384Z,100120.41
2018-04-10T17:33:41.533Z,100133.09
2018-04-10T17:38:32.619Z,100133.96
2018-04-10T17:43:24.387Z,100150.83
2018-04-10T17:48:15.526Z,100156.91
2018-04-10T17:53:06.552Z,100167.19
2018-04-10T17:57:57.656Z,100173.70
2018-04-10T18:02:48.778Z,100185.55
2018-04-10T18:07:39.807Z,100191.22
2018-04-10T18:12:30.921Z,100212.55
2018-04-10T18:17:21.951Z,100217.89
2018-04-10T18:22:13.105Z,100230.95
2018-04-10T18:27:04.229Z,100241.14
2018-04-10T18:31:55.243Z,100254.79
2018-04-10T18:36:46.251Z,100264.96
2018-04-10T18:41:37.321Z,100269.55
2018-04-10T18:46:28.443Z,100287.76
2018-04-10T18:51:19.578Z,100287.98
2018-04-10T18:56:10.855Z,100305.23
2018-04-10T19:01:01.894Z,100302.80
2018-04-10T19:05:53.015Z,100325.86
2018-04-10T19:10:44.130Z,100324.81
2018-04-10T19:15:35.361Z,100334.52
2018-04-10T19:20:26.463Z,100334.43
2018-04-10T19:25:18.240Z,100344.30
2018-04-10T19:30:09.343Z,100343.82
2018-04-10T19:35:01.124Z,100348.58
2018-04-10T19:39:52.181Z,100353.33
2018-04-10T19:44:43.289Z,100349.41
2018-04-10T19:49:34.319Z,100353.36
2018-04-10T19:54:25.449Z,100363.58
2018-04-10T19:59:16.523Z,100363.13
2018-04-10T20:04:08.425Z,100361.16
2018-04-10T20:08:59.485Z,100365.19
2018-04-10T20:13:51.430Z,100373.72
2018-04-10T20:18:42.472Z,100372.45
2018-04-10T20:23:34.273Z,100370.32
2018-04-10T20:28:25.291Z,100376.23
2018-04-10T20:33:16.335Z,100381.03
2018-04-10T20:38:07.607Z,100369.20
2018-04-10T20:42:59.500Z,100390.16
2018-04-10T20:47:50.668Z,100394.98
2018-04-10T20:52:42.054Z,100402.98
2018-04-10T20:57:33.099Z,100413.81
2018-04-10T21:02:25.169Z,100420.69
2018-04-10T21:07:16.203Z,100433.29
2018-04-10T21:12:07.246Z,100439.00
2018-04-10T21:16:58.440Z,100436.71
2018-04-10T21:21:49.700Z,100451.48
2018-04-10T21:26:40.763Z,100458.77
2018-04-10T21:31:32.639Z,100454.84
2018-04-10T21:36:23.729Z,100447.23
2018-04-10T21:41:15.500Z,100454.37
2018-04-10T21:46:06.518Z,100448.78
2018-04-10T21:50:57.547Z,100438.31
2018-04-10T21:55:48.647Z,100429.46
2018-04-10T22:00:40.449Z,100442.40
2018-04-10T22:05:31.522Z,100437.96
2018-04-10T22:10:22.624Z,100450.24
2018-04-10T22:15:14.500Z,100449.57
2018-04-10T22:20:05.511Z,100445.67
2018-04-10T22:24:56.527Z,100449.48
2018-04-10T22:29:48.300Z,100456.86
2018-04-10T22:34:39.309Z,100444.76
2018-04-10T22:39:30.316Z,100443.56
2018-04-10T22:44:21.337Z,100440.17
2018-04-10T22:49:12.369Z,100454.34
2018-04-10T22:54:03.395Z,100456.51
2018-04-10T22:58:54.762Z,100454.91
2018-04-10T23:03:46.561Z,100456.80
2018-04-10T23:08:37.665Z,100472.55
2018-04-10T23:13:28.728Z,100474.73
2018-04-10T23:18:19.847Z,100471.89
2018-04-10T23:23:10.883Z,100486.69
2018-04-10T23:28:02.093Z,100494.84
2018-04-10T23:32:53.158Z,100483.95
2018-04-10T23:37:44.208Z,100498.22
2018-04-10T23:42:35.331Z,100500.53
2018-04-10T23:47:26.362Z,100493.88
2018-04-10T23:52:18.184Z,100485.34
2018-04-10T23:57:09.219Z,100486.68
